sensor_id;sensor_type;location;lat;lon;timestamp;temperature;humidity
19206;DHT22;59358;52.134;5.596;2023-01-15T00:01:26;7.20;99.90
19206;DHT22;59358;52.134;5.596;2023-01-15T00:03:55;7.30;99.90
19206;DHT22;59358;52.134;5.596;2023-01-15T00:06:24;7.30;99.90
19206;DHT22;59358;52.134;5.596;2023-01-15T00:08:51;7.30;99.90
19206;DHT22;59358;52.134;5.596;2023-01-15T00:11:18;7.30;99.90
19206;DHT22;59358;52.134;5.596;2023-01-15T00:13:46;7.30;99.90
19206;DHT22;59358;52.134;5.596;2023-01-15T00:16:14;7.30;99.90
19206;DHT22;59358;52.134;5.596;2023-01-15T00:18:47;7.30;99.90
19206;DHT22;59358;52.134;5.596;2023-01-15T00:21:14;7.40;99.90
19206;DHT22;59358;52.134;5.596;2023-01-15T00:23:41;7.40;99.90
19206;DHT22;59358;52.134;5.596;2023-01-15T00:26:27;7.40;99.90
19206;DHT22;59358;52.134;5.596;2023-01-15T00:29:12;7.30;99.90
19206;DHT22;59358;52.134;5.596;2023-01-15T00:31:39;7.30;99.90
19206;DHT22;59358;52.134;5.596;2023-01-15T00:34:08;7.30;99.90
19206;DHT22;59358;52.134;5.596;2023-01-15T00:36:34;7.30;99.90
19206;DHT22;59358;52.134;5.596;2023-01-15T00:39:02;7.30;99.90
19206;DHT22;59358;52.134;5.596;2023-01-15T00:41:29;7.30;99.90
19206;DHT22;59358;52.134;5.596;2023-01-15T00:43:56;7.30;99.90
19206;DHT22;59358;52.134;5.596;2023-01-15T00:46:23;7.20;99.90
19206;DHT22;59358;52.134;5.596;2023-01-15T00:48:50;7.30;99.90
19206;DHT22;59358;52.134;5.596;2023-01-15T00:51:18;7.20;99.90
19206;DHT22;59358;52.134;5.596;2023-01-15T00:53:45;7.20;99.90
19206;DHT22;59358;52.134;5.596;2023-01-15T00:56:13;7.20;99.90
19206;DHT22;59358;52.134;5.596;2023-01-15T00:58:40;7.30;99.90
19206;DHT22;59358;52.134;5.596;2023-01-15T01:01:07;7.30;99.90
19206;DHT22;59358;52.134;5.596;2023-01-15T01:03:34;7.30;99.90
19206;DHT22;59358;52.134;5.596;2023-01-15T01:06:01;7.30;99.90
19206;DHT22;59358;52.134;5.596;2023-01-15T01:08:30;7.30;99.90
19206;DHT22;59358;52.134;5.596;2023-01-15T01:11:01;7.30;99.90
19206;DHT22;59358;52.134;5.596;2023-01-15T01:13:28;7.30;99.90
19206;DHT22;59358;52.134;5.596;2023-01-15T01:15:55;7.40;99.90
19206;DHT22;59358;52.134;5.596;2023-01-15T01:18:22;7.30;99.90
19206;DHT22;59358;52.134;5.596;2023-01-15T01:20:49;7.30;99.90
19206;DHT22;59358;52.134;5.596;2023-01-15T01:23:16;7.30;99.90
19206;DHT22;59358;52.134;5.596;2023-01-15T01:25:44;7.30;99.90
19206;DHT22;59358;52.134;5.596;2023-01-15T01:28:11;7.30;99.90
19206;DHT22;59358;52.134;5.596;2023-01-15T01:30:38;7.30;99.90
19206;DHT22;59358;52.134;5.596;2023-01-15T01:33:06;7.20;99.90
19206;DHT22;59358;52.134;5.596;2023-01-15T01:35:33;7.20;99.90
19206;DHT22;59358;52.134;5.596;2023-01-15T01:38:00;7.30;99.90
19206;DHT22;59358;52.134;5.596;2023-01-15T01:40:27;7.30;99.90
19206;DHT22;59358;52.134;5.596;2023-01-15T01:42:55;7.30;99.90
19206;DHT22;59358;52.134;5.596;2023-01-15T01:45:25;7.30;99.90
19206;DHT22;59358;52.134;5.596;2023-01-15T01:47:54;7.20;99.90
19206;DHT22;59358;52.134;5.596;2023-01-15T01:50:22;7.20;99.90
19206;DHT22;59358;52.134;5.596;2023-01-15T01:52:52;7.20;99.90
19206;DHT22;59358;52.134;5.596;2023-01-15T01:55:22;7.20;99.90
19206;DHT22;59358;52.134;5.596;2023-01-15T01:57:50;7.20;99.90
19206;DHT22;59358;52.134;5.596;2023-01-15T02:00:21;7.20;99.90
19206;DHT22;59358;52.134;5.596;2023-01-15T02:02:49;7.20;99.90
19206;DHT22;59358;52.134;5.596;2023-01-15T02:05:22;7.20;99.90
19206;DHT22;59358;52.134;5.596;2023-01-15T02:07:51;7.10;99.90
19206;DHT22;59358;52.134;5.596;2023-01-15T02:10:18;7.10;99.90
19206;DHT22;59358;52.134;5.596;2023-01-15T02:12:48;7.10;99.90
19206;DHT22;59358;52.134;5.596;2023-01-15T02:15:25;7.10;99.90
19206;DHT22;59358;52.134;5.596;2023-01-15T02:17:57;7.10;99.90
19206;DHT22;59358;52.134;5.596;2023-01-15T02:20:30;7.10;99.90
19206;DHT22;59358;52.134;5.596;2023-01-15T02:23:15;7.00;99.90
19206;DHT22;59358;52.134;5.596;2023-01-15T02:26:07;7.10;99.90
19206;DHT22;59358;52.134;5.596;2023-01-15T02:28:42;7.10;99.90
19206;DHT22;59358;52.134;5.596;2023-01-15T02:31:14;7.10;99.90
19206;DHT22;59358;52.134;5.596;2023-01-15T02:33:48;7.10;99.90
19206;DHT22;59358;52.134;5.596;2023-01-15T02:36:19;7.10;99.90
19206;DHT22;59358;52.134;5.596;2023-01-15T02:38:49;7.10;99.90
19206;DHT22;59358;52.134;5.596;2023-01-15T02:41:20;7.00;99.90
19206;DHT22;59358;52.134;5.596;2023-01-15T02:43:51;7.10;99.90
19206;DHT22;59358;52.134;5.596;2023-01-15T02:46:22;7.00;99.90
19206;DHT22;59358;52.134;5.596;2023-01-15T02:48:52;7.10;99.90
19206;DHT22;59358;52.134;5.596;2023-01-15T02:51:22;7.00;99.90
19206;DHT22;59358;52.134;5.596;2023-01-15T02:53:53;7.00;99.90
19206;DHT22;59358;52.134;5.596;2023-01-15T02:56:23;7.10;99.90
19206;DHT22;59358;52.134;5.596;2023-01-15T02:58:56;7.00;99.90
19206;DHT22;59358;52.134;5.596;2023-01-15T03:01:26;7.00;99.90
19206;DHT22;59358;52.134;5.596;2023-01-15T03:03:57;7.00;99.90
19206;DHT22;59358;52.134;5.596;2023-01-15T03:06:31;7.00;99.90
19206;DHT22;59358;52.134;5.596;2023-01-15T03:09:00;7.00;99.90
19206;DHT22;59358;52.134;5.596;2023-01-15T03:11:27;7.00;99.90
19206;DHT22;59358;52.134;5.596;2023-01-15T03:14:01;6.90;99.90
19206;DHT22;59358;52.134;5.596;2023-01-15T03:16:32;7.00;99.90
19206;DHT22;59358;52.134;5.596;2023-01-15T03:19:06;6.90;99.90
19206;DHT22;59358;52.134;5.596;2023-01-15T03:21:42;7.00;99.90
19206;DHT22;59358;52.134;5.596;2023-01-15T03:24:10;7.00;99.90
19206;DHT22;59358;52.134;5.596;2023-01-15T03:26:38;7.00;99.90
19206;DHT22;59358;52.134;5.596;2023-01-15T03:29:07;7.00;99.90
19206;DHT22;59358;52.134;5.596;2023-01-15T03:31:37;7.10;99.90
19206;DHT22;59358;52.134;5.596;2023-01-15T03:34:04;7.00;99.90
19206;DHT22;59358;52.134;5.596;2023-01-15T03:36:32;7.00;99.90
19206;DHT22;59358;52.134;5.596;2023-01-15T03:38:59;7.00;99.90
19206;DHT22;59358;52.134;5.596;2023-01-15T03:41:32;7.00;99.90
19206;DHT22;59358;52.134;5.596;2023-01-15T03:44:09;7.00;99.90
19206;DHT22;59358;52.134;5.596;2023-01-15T03:46:56;7.00;99.90
19206;DHT22;59358;52.134;5.596;2023-01-15T03:49:33;7.00;99.90
19206;DHT22;59358;52.134;5.596;2023-01-15T03:52:09;6.90;99.90
19206;DHT22;59358;52.134;5.596;2023-01-15T03:54:44;6.90;99.90
19206;DHT22;59358;52.134;5.596;2023-01-15T03:57:18;6.80;99.90
19206;DHT22;59358;52.134;5.596;2023-01-15T03:59:51;6.80;99.90
19206;DHT22;59358;52.134;5.596;2023-01-15T04:02:20;6.80;99.90
19206;DHT22;59358;52.134;5.596;2023-01-15T04:04:49;6.80;99.90
19206;DHT22;59358;52.134;5.596;2023-01-15T04:07:17;6.80;99.90
19206;DHT22;59358;52.134;5.596;2023-01-15T04:09:44;6.80;99.90
19206;DHT22;59358;52.134;5.596;2023-01-15T04:12:11;6.80;99.90
19206;DHT22;59358;52.134;5.596;2023-01-15T04:14:38;6.80;99.90
19206;DHT22;59358;52.134;5.596;2023-01-15T04:17:06;6.90;99.90
19206;DHT22;59358;52.134;5.596;2023-01-15T04:19:33;6.90;99.90
19206;DHT22;59358;52.134;5.596;2023-01-15T04:22:00;7.00;99.90
19206;DHT22;59358;52.134;5.596;2023-01-15T04:24:27;6.90;99.90
19206;DHT22;59358;52.134;5.596;2023-01-15T04:26:54;6.90;99.90
19206;DHT22;59358;52.134;5.596;2023-01-15T04:29:20;6.80;99.90
19206;DHT22;59358;52.134;5.596;2023-01-15T04:31:48;6.80;99.90
19206;DHT22;59358;52.134;5.596;2023-01-15T04:34:18;6.80;99.90
19206;DHT22;59358;52.134;5.596;2023-01-15T04:36:45;6.80;99.90
19206;DHT22;59358;52.134;5.596;2023-01-15T04:39:12;6.80;99.90
19206;DHT22;59358;52.134;5.596;2023-01-15T04:41:39;6.80;99.90
19206;DHT22;59358;52.134;5.596;2023-01-15T04:44:23;6.80;99.90
19206;DHT22;59358;52.134;5.596;2023-01-15T04:46:53;6.90;99.90
19206;DHT22;59358;52.134;5.596;2023-01-15T04:49:23;6.80;99.90
19206;DHT22;59358;52.134;5.596;2023-01-15T04:51:50;6.70;99.90
19206;DHT22;59358;52.134;5.596;2023-01-15T04:54:17;6.80;99.90
19206;DHT22;59358;52.134;5.596;2023-01-15T04:56:45;6.70;99.90
19206;DHT22;59358;52.134;5.596;2023-01-15T04:59:13;6.70;99.90
19206;DHT22;59358;52.134;5.596;2023-01-15T05:01:41;6.70;99.90
19206;DHT22;59358;52.134;5.596;2023-01-15T05:04:08;6.60;99.90
19206;DHT22;59358;52.134;5.596;2023-01-15T05:06:36;6.70;99.90
19206;DHT22;59358;52.134;5.596;2023-01-15T05:09:04;6.60;99.90
19206;DHT22;59358;52.134;5.596;2023-01-15T05:11:33;6.60;99.90
19206;DHT22;59358;52.134;5.596;2023-01-15T05:14:01;6.60;99.90
19206;DHT22;59358;52.134;5.596;2023-01-15T05:16:28;6.60;99.90
19206;DHT22;59358;52.134;5.596;2023-01-15T05:18:57;6.50;99.90
19206;DHT22;59358;52.134;5.596;2023-01-15T05:21:26;6.40;99.90
19206;DHT22;59358;52.134;5.596;2023-01-15T05:23:58;6.40;99.90
19206;DHT22;59358;52.134;5.596;2023-01-15T05:26:26;6.40;99.90
19206;DHT22;59358;52.134;5.596;2023-01-15T05:28:56;6.50;99.90
19206;DHT22;59358;52.134;5.596;2023-01-15T05:31:24;6.40;99.90
19206;DHT22;59358;52.134;5.596;2023-01-15T05:33:52;6.30;99.90
19206;DHT22;59358;52.134;5.596;2023-01-15T05:36:21;6.40;99.90
19206;DHT22;59358;52.134;5.596;2023-01-15T05:38:48;6.40;99.90
19206;DHT22;59358;52.134;5.596;2023-01-15T05:41:18;6.40;99.90
19206;DHT22;59358;52.134;5.596;2023-01-15T05:44:05;6.40;99.90
19206;DHT22;59358;52.134;5.596;2023-01-15T05:46:32;6.30;99.90
19206;DHT22;59358;52.134;5.596;2023-01-15T05:49:00;6.20;99.90
19206;DHT22;59358;52.134;5.596;2023-01-15T05:51:27;6.30;99.90
19206;DHT22;59358;52.134;5.596;2023-01-15T05:53:55;6.20;99.90
19206;DHT22;59358;52.134;5.596;2023-01-15T05:56:23;6.20;99.90
19206;DHT22;59358;52.134;5.596;2023-01-15T05:58:50;6.20;99.90
19206;DHT22;59358;52.134;5.596;2023-01-15T06:01:18;6.20;99.90
19206;DHT22;59358;52.134;5.596;2023-01-15T06:03:45;6.10;99.90
19206;DHT22;59358;52.134;5.596;2023-01-15T06:06:14;6.10;99.90
19206;DHT22;59358;52.134;5.596;2023-01-15T06:08:42;6.10;99.90
19206;DHT22;59358;52.134;5.596;2023-01-15T06:11:09;6.10;99.90
19206;DHT22;59358;52.134;5.596;2023-01-15T06:13:38;6.30;99.90
19206;DHT22;59358;52.134;5.596;2023-01-15T06:16:06;6.30;99.90
19206;DHT22;59358;52.134;5.596;2023-01-15T06:18:33;6.30;99.90
19206;DHT22;59358;52.134;5.596;2023-01-15T06:21:02;6.30;99.90
19206;DHT22;59358;52.134;5.596;2023-01-15T06:23:29;6.30;99.90
19206;DHT22;59358;52.134;5.596;2023-01-15T06:25:59;6.30;99.90
19206;DHT22;59358;52.134;5.596;2023-01-15T06:28:27;6.30;99.90
19206;DHT22;59358;52.134;5.596;2023-01-15T06:30:55;6.10;99.90
19206;DHT22;59358;52.134;5.596;2023-01-15T06:33:22;6.00;99.90
19206;DHT22;59358;52.134;5.596;2023-01-15T06:35:50;5.80;99.90
19206;DHT22;59358;52.134;5.596;2023-01-15T06:38:17;5.70;99.90
19206;DHT22;59358;52.134;5.596;2023-01-15T06:40:44;5.60;99.90
19206;DHT22;59358;52.134;5.596;2023-01-15T06:43:11;5.50;99.90
19206;DHT22;59358;52.134;5.596;2023-01-15T06:45:57;5.50;99.90
19206;DHT22;59358;52.134;5.596;2023-01-15T06:48:41;5.50;99.90
19206;DHT22;59358;52.134;5.596;2023-01-15T06:51:08;5.40;99.90
19206;DHT22;59358;52.134;5.596;2023-01-15T06:53:39;5.30;99.90
19206;DHT22;59358;52.134;5.596;2023-01-15T06:56:06;5.30;99.90
19206;DHT22;59358;52.134;5.596;2023-01-15T06:58:33;5.20;99.90
19206;DHT22;59358;52.134;5.596;2023-01-15T07:01:07;5.10;99.90
19206;DHT22;59358;52.134;5.596;2023-01-15T07:03:34;5.10;99.90
19206;DHT22;59358;52.134;5.596;2023-01-15T07:06:05;5.10;99.90
19206;DHT22;59358;52.134;5.596;2023-01-15T07:08:32;5.10;99.90
19206;DHT22;59358;52.134;5.596;2023-01-15T07:11:01;5.10;99.90
19206;DHT22;59358;52.134;5.596;2023-01-15T07:13:28;5.10;99.90
19206;DHT22;59358;52.134;5.596;2023-01-15T07:15:57;5.20;99.90
19206;DHT22;59358;52.134;5.596;2023-01-15T07:18:26;5.30;99.90
19206;DHT22;59358;52.134;5.596;2023-01-15T07:20:53;5.40;99.90
19206;DHT22;59358;52.134;5.596;2023-01-15T07:23:21;5.50;99.90
19206;DHT22;59358;52.134;5.596;2023-01-15T07:25:47;5.50;99.90
19206;DHT22;59358;52.134;5.596;2023-01-15T07:28:14;5.50;99.90
19206;DHT22;59358;52.134;5.596;2023-01-15T07:30:41;5.40;99.90
19206;DHT22;59358;52.134;5.596;2023-01-15T07:33:08;5.50;99.90
19206;DHT22;59358;52.134;5.596;2023-01-15T07:35:36;5.40;99.90
19206;DHT22;59358;52.134;5.596;2023-01-15T07:38:04;5.40;99.90
19206;DHT22;59358;52.134;5.596;2023-01-15T07:40:32;5.50;99.90
19206;DHT22;59358;52.134;5.596;2023-01-15T07:42:58;5.50;99.90
19206;DHT22;59358;52.134;5.596;2023-01-15T07:45:43;5.50;99.90
19206;DHT22;59358;52.134;5.596;2023-01-15T07:48:27;5.50;99.90
19206;DHT22;59358;52.134;5.596;2023-01-15T07:51:13;5.50;99.90
19206;DHT22;59358;52.134;5.596;2023-01-15T07:53:40;5.50;99.90
19206;DHT22;59358;52.134;5.596;2023-01-15T07:56:07;5.50;99.90
19206;DHT22;59358;52.134;5.596;2023-01-15T07:58:34;5.50;99.90
19206;DHT22;59358;52.134;5.596;2023-01-15T08:01:01;5.50;99.90
19206;DHT22;59358;52.134;5.596;2023-01-15T08:03:28;5.60;99.90
19206;DHT22;59358;52.134;5.596;2023-01-15T08:05:55;5.50;99.90
19206;DHT22;59358;52.134;5.596;2023-01-15T08:08:24;5.50;99.90
19206;DHT22;59358;52.134;5.596;2023-01-15T08:10:50;5.50;99.90
19206;DHT22;59358;52.134;5.596;2023-01-15T08:13:35;5.50;99.90
19206;DHT22;59358;52.134;5.596;2023-01-15T08:16:19;5.50;99.90
19206;DHT22;59358;52.134;5.596;2023-01-15T08:18:46;5.50;99.90
19206;DHT22;59358;52.134;5.596;2023-01-15T08:21:13;5.50;99.90
19206;DHT22;59358;52.134;5.596;2023-01-15T08:23:42;5.50;99.90
19206;DHT22;59358;52.134;5.596;2023-01-15T08:26:11;5.50;99.90
19206;DHT22;59358;52.134;5.596;2023-01-15T08:28:38;5.50;99.90
19206;DHT22;59358;52.134;5.596;2023-01-15T08:31:07;5.50;99.90
19206;DHT22;59358;52.134;5.596;2023-01-15T08:33:34;5.50;99.90
19206;DHT22;59358;52.134;5.596;2023-01-15T08:36:04;5.40;99.90
19206;DHT22;59358;52.134;5.596;2023-01-15T08:38:31;5.50;99.90
19206;DHT22;59358;52.134;5.596;2023-01-15T08:40:59;5.50;99.90
19206;DHT22;59358;52.134;5.596;2023-01-15T08:43:30;5.50;99.90
19206;DHT22;59358;52.134;5.596;2023-01-15T08:45:57;5.60;99.90
19206;DHT22;59358;52.134;5.596;2023-01-15T08:48:24;5.60;99.90
19206;DHT22;59358;52.134;5.596;2023-01-15T08:50:51;5.60;99.90
19206;DHT22;59358;52.134;5.596;2023-01-15T08:53:19;5.70;99.90
19206;DHT22;59358;52.134;5.596;2023-01-15T08:55:46;5.70;99.90
19206;DHT22;59358;52.134;5.596;2023-01-15T08:58:16;5.80;99.90
19206;DHT22;59358;52.134;5.596;2023-01-15T09:00:43;5.80;99.90
19206;DHT22;59358;52.134;5.596;2023-01-15T09:03:11;5.80;99.90
19206;DHT22;59358;52.134;5.596;2023-01-15T09:05:38;5.80;99.90
19206;DHT22;59358;52.134;5.596;2023-01-15T09:08:06;5.80;99.90
19206;DHT22;59358;52.134;5.596;2023-01-15T09:10:33;5.90;99.90
19206;DHT22;59358;52.134;5.596;2023-01-15T09:13:00;6.00;99.90
19206;DHT22;59358;52.134;5.596;2023-01-15T09:15:30;6.00;99.90
19206;DHT22;59358;52.134;5.596;2023-01-15T09:17:57;5.90;99.90
19206;DHT22;59358;52.134;5.596;2023-01-15T09:20:25;5.90;99.90
19206;DHT22;59358;52.134;5.596;2023-01-15T09:22:52;5.90;99.90
19206;DHT22;59358;52.134;5.596;2023-01-15T09:25:19;6.00;99.90
19206;DHT22;59358;52.134;5.596;2023-01-15T09:27:48;6.00;99.90
19206;DHT22;59358;52.134;5.596;2023-01-15T09:30:17;6.00;99.90
19206;DHT22;59358;52.134;5.596;2023-01-15T09:32:46;6.00;99.90
19206;DHT22;59358;52.134;5.596;2023-01-15T09:35:13;6.20;99.90
19206;DHT22;59358;52.134;5.596;2023-01-15T09:37:40;6.20;99.90
19206;DHT22;59358;52.134;5.596;2023-01-15T09:40:11;6.30;99.90
19206;DHT22;59358;52.134;5.596;2023-01-15T09:42:51;6.30;99.90
19206;DHT22;59358;52.134;5.596;2023-01-15T09:45:24;6.40;99.90
19206;DHT22;59358;52.134;5.596;2023-01-15T09:48:19;6.50;99.90
19206;DHT22;59358;52.134;5.596;2023-01-15T09:51:03;6.60;99.90
19206;DHT22;59358;52.134;5.596;2023-01-15T09:56:24;6.80;99.90
19206;DHT22;59358;52.134;5.596;2023-01-15T09:58:53;6.80;99.90
19206;DHT22;59358;52.134;5.596;2023-01-15T10:01:25;6.70;99.90
19206;DHT22;59358;52.134;5.596;2023-01-15T10:03:57;6.70;99.90
19206;DHT22;59358;52.134;5.596;2023-01-15T10:06:27;6.70;99.90
19206;DHT22;59358;52.134;5.596;2023-01-15T10:09:01;6.70;99.90
19206;DHT22;59358;52.134;5.596;2023-01-15T10:11:34;6.70;99.90
19206;DHT22;59358;52.134;5.596;2023-01-15T10:14:34;6.80;99.90
19206;DHT22;59358;52.134;5.596;2023-01-15T10:17:10;6.80;99.90
19206;DHT22;59358;52.134;5.596;2023-01-15T10:19:41;7.00;99.90
19206;DHT22;59358;52.134;5.596;2023-01-15T10:22:16;7.20;99.90
19206;DHT22;59358;52.134;5.596;2023-01-15T10:24:52;7.30;99.90
19206;DHT22;59358;52.134;5.596;2023-01-15T10:27:23;7.40;99.90
19206;DHT22;59358;52.134;5.596;2023-01-15T10:29:54;7.60;99.90
19206;DHT22;59358;52.134;5.596;2023-01-15T10:32:31;7.80;99.90
19206;DHT22;59358;52.134;5.596;2023-01-15T10:35:16;8.00;99.90
19206;DHT22;59358;52.134;5.596;2023-01-15T10:37:50;8.20;99.90
19206;DHT22;59358;52.134;5.596;2023-01-15T10:40:27;8.30;99.90
19206;DHT22;59358;52.134;5.596;2023-01-15T10:43:02;8.20;99.90
19206;DHT22;59358;52.134;5.596;2023-01-15T10:45:34;8.00;99.90
19206;DHT22;59358;52.134;5.596;2023-01-15T10:48:08;7.90;99.90
19206;DHT22;59358;52.134;5.596;2023-01-15T10:50:40;7.80;99.90
19206;DHT22;59358;52.134;5.596;2023-01-15T10:53:11;7.80;99.90
19206;DHT22;59358;52.134;5.596;2023-01-15T10:55:43;8.10;99.90
19206;DHT22;59358;52.134;5.596;2023-01-15T10:58:13;8.10;99.90
19206;DHT22;59358;52.134;5.596;2023-01-15T11:00:48;8.10;99.90
19206;DHT22;59358;52.134;5.596;2023-01-15T11:03:19;8.10;99.90
19206;DHT22;59358;52.134;5.596;2023-01-15T11:05:50;8.10;99.90
19206;DHT22;59358;52.134;5.596;2023-01-15T11:08:21;8.00;99.90
19206;DHT22;59358;52.134;5.596;2023-01-15T11:10:50;8.00;99.90
19206;DHT22;59358;52.134;5.596;2023-01-15T11:13:20;8.30;99.90
19206;DHT22;59358;52.134;5.596;2023-01-15T11:16:05;8.30;99.90
19206;DHT22;59358;52.134;5.596;2023-01-15T11:18:55;8.30;99.90
19206;DHT22;59358;52.134;5.596;2023-01-15T11:21:41;8.20;99.90
19206;DHT22;59358;52.134;5.596;2023-01-15T11:24:14;8.00;99.90
19206;DHT22;59358;52.134;5.596;2023-01-15T11:26:46;7.90;99.90
19206;DHT22;59358;52.134;5.596;2023-01-15T11:29:19;7.90;99.90
19206;DHT22;59358;52.134;5.596;2023-01-15T11:31:51;7.90;99.90
19206;DHT22;59358;52.134;5.596;2023-01-15T11:34:19;7.80;99.90
19206;DHT22;59358;52.134;5.596;2023-01-15T11:36:48;7.80;99.90
19206;DHT22;59358;52.134;5.596;2023-01-15T11:39:27;7.80;99.90
19206;DHT22;59358;52.134;5.596;2023-01-15T11:42:00;7.80;99.90
19206;DHT22;59358;52.134;5.596;2023-01-15T11:44:55;7.80;99.90
19206;DHT22;59358;52.134;5.596;2023-01-15T11:47:52;7.70;99.90
19206;DHT22;59358;52.134;5.596;2023-01-15T11:50:39;7.60;99.90
19206;DHT22;59358;52.134;5.596;2023-01-15T11:53:17;7.60;99.90
19206;DHT22;59358;52.134;5.596;2023-01-15T11:55:54;7.50;99.90
19206;DHT22;59358;52.134;5.596;2023-01-15T11:58:26;7.40;99.90
19206;DHT22;59358;52.134;5.596;2023-01-15T12:00:53;7.40;99.90
19206;DHT22;59358;52.134;5.596;2023-01-15T12:03:24;7.40;99.90
19206;DHT22;59358;52.134;5.596;2023-01-15T12:05:58;7.50;99.90
19206;DHT22;59358;52.134;5.596;2023-01-15T12:08:41;7.50;99.90
19206;DHT22;59358;52.134;5.596;2023-01-15T12:11:30;7.60;99.90
19206;DHT22;59358;52.134;5.596;2023-01-15T12:14:27;7.70;99.90
19206;DHT22;59358;52.134;5.596;2023-01-15T12:17:01;7.70;99.90
19206;DHT22;59358;52.134;5.596;2023-01-15T12:19:59;7.80;99.90
19206;DHT22;59358;52.134;5.596;2023-01-15T12:22:40;7.80;99.90
19206;DHT22;59358;52.134;5.596;2023-01-15T12:25:22;7.60;99.90
19206;DHT22;59358;52.134;5.596;2023-01-15T12:28:03;7.50;99.90
19206;DHT22;59358;52.134;5.596;2023-01-15T12:30:44;7.50;99.90
19206;DHT22;59358;52.134;5.596;2023-01-15T12:33:22;7.40;99.90
19206;DHT22;59358;52.134;5.596;2023-01-15T12:35:54;7.30;99.90
19206;DHT22;59358;52.134;5.596;2023-01-15T12:38:39;7.10;99.90
19206;DHT22;59358;52.134;5.596;2023-01-15T12:41:11;6.90;99.90
19206;DHT22;59358;52.134;5.596;2023-01-15T12:43:43;6.90;99.90
19206;DHT22;59358;52.134;5.596;2023-01-15T12:50:05;6.80;99.90
19206;DHT22;59358;52.134;5.596;2023-01-15T12:52:40;6.80;99.90
19206;DHT22;59358;52.134;5.596;2023-01-15T12:55:25;6.80;99.90
19206;DHT22;59358;52.134;5.596;2023-01-15T12:57:58;6.80;99.90
19206;DHT22;59358;52.134;5.596;2023-01-15T13:00:31;6.70;99.90
19206;DHT22;59358;52.134;5.596;2023-01-15T13:03:13;6.60;99.90
19206;DHT22;59358;52.134;5.596;2023-01-15T13:05:45;6.50;99.90
19206;DHT22;59358;52.134;5.596;2023-01-15T13:08:19;6.50;99.90
19206;DHT22;59358;52.134;5.596;2023-01-15T13:10:48;6.50;99.90
19206;DHT22;59358;52.134;5.596;2023-01-15T13:13:18;6.60;99.90
19206;DHT22;59358;52.134;5.596;2023-01-15T13:16:10;6.50;99.90
19206;DHT22;59358;52.134;5.596;2023-01-15T13:18:48;6.60;99.90
19206;DHT22;59358;52.134;5.596;2023-01-15T13:21:18;6.60;99.90
19206;DHT22;59358;52.134;5.596;2023-01-15T13:24:11;6.60;99.90
19206;DHT22;59358;52.134;5.596;2023-01-15T13:27:01;6.70;99.90
19206;DHT22;59358;52.134;5.596;2023-01-15T13:29:41;6.70;99.90
19206;DHT22;59358;52.134;5.596;2023-01-15T13:32:13;6.70;99.90
19206;DHT22;59358;52.134;5.596;2023-01-15T13:34:44;6.70;99.90
19206;DHT22;59358;52.134;5.596;2023-01-15T13:37:19;6.80;99.90
19206;DHT22;59358;52.134;5.596;2023-01-15T13:39:48;6.80;99.90
19206;DHT22;59358;52.134;5.596;2023-01-15T13:42:18;6.80;99.90
19206;DHT22;59358;52.134;5.596;2023-01-15T13:45:06;6.80;99.90
19206;DHT22;59358;52.134;5.596;2023-01-15T13:47:35;6.70;99.90
19206;DHT22;59358;52.134;5.596;2023-01-15T13:50:06;6.70;99.90
19206;DHT22;59358;52.134;5.596;2023-01-15T13:52:39;6.80;99.90
19206;DHT22;59358;52.134;5.596;2023-01-15T13:55:11;6.90;99.90
19206;DHT22;59358;52.134;5.596;2023-01-15T13:57:40;6.90;99.90
19206;DHT22;59358;52.134;5.596;2023-01-15T14:00:28;6.90;99.90
19206;DHT22;59358;52.134;5.596;2023-01-15T14:03:22;7.00;99.90
19206;DHT22;59358;52.134;5.596;2023-01-15T14:06:02;7.00;99.90
19206;DHT22;59358;52.134;5.596;2023-01-15T14:08:38;7.00;99.90
19206;DHT22;59358;52.134;5.596;2023-01-15T14:11:26;7.00;99.90
19206;DHT22;59358;52.134;5.596;2023-01-15T14:16:56;7.00;99.90
19206;DHT22;59358;52.134;5.596;2023-01-15T14:19:56;7.00;99.90
19206;DHT22;59358;52.134;5.596;2023-01-15T14:22:39;7.00;99.90
19206;DHT22;59358;52.134;5.596;2023-01-15T14:25:19;6.90;99.90
19206;DHT22;59358;52.134;5.596;2023-01-15T14:27:57;6.90;99.90
19206;DHT22;59358;52.134;5.596;2023-01-15T14:30:51;6.90;99.90
19206;DHT22;59358;52.134;5.596;2023-01-15T14:33:27;6.90;99.90
19206;DHT22;59358;52.134;5.596;2023-01-15T14:36:08;7.00;99.90
19206;DHT22;59358;52.134;5.596;2023-01-15T14:38:36;7.00;99.90
19206;DHT22;59358;52.134;5.596;2023-01-15T14:41:10;6.90;99.90
19206;DHT22;59358;52.134;5.596;2023-01-15T14:43:39;6.90;99.90
19206;DHT22;59358;52.134;5.596;2023-01-15T14:46:17;6.80;99.90
19206;DHT22;59358;52.134;5.596;2023-01-15T14:48:48;6.90;99.90
19206;DHT22;59358;52.134;5.596;2023-01-15T14:51:20;6.80;99.90
19206;DHT22;59358;52.134;5.596;2023-01-15T14:53:50;6.60;99.90
19206;DHT22;59358;52.134;5.596;2023-01-15T14:56:19;6.50;99.90
19206;DHT22;59358;52.134;5.596;2023-01-15T14:58:51;6.60;99.90
19206;DHT22;59358;52.134;5.596;2023-01-15T15:01:36;6.60;99.90
19206;DHT22;59358;52.134;5.596;2023-01-15T15:04:31;6.60;99.90
19206;DHT22;59358;52.134;5.596;2023-01-15T15:07:00;6.70;99.90
19206;DHT22;59358;52.134;5.596;2023-01-15T15:09:32;6.60;99.90
19206;DHT22;59358;52.134;5.596;2023-01-15T15:12:13;6.70;99.90
19206;DHT22;59358;52.134;5.596;2023-01-15T15:14:52;6.70;99.90
19206;DHT22;59358;52.134;5.596;2023-01-15T15:17:29;6.70;99.90
19206;DHT22;59358;52.134;5.596;2023-01-15T15:20:14;6.70;99.90
19206;DHT22;59358;52.134;5.596;2023-01-15T15:22:43;6.80;99.90
19206;DHT22;59358;52.134;5.596;2023-01-15T15:25:18;6.80;99.90
19206;DHT22;59358;52.134;5.596;2023-01-15T15:27:46;6.80;99.90
19206;DHT22;59358;52.134;5.596;2023-01-15T15:30:14;6.80;99.90
19206;DHT22;59358;52.134;5.596;2023-01-15T15:32:42;6.80;99.90
19206;DHT22;59358;52.134;5.596;2023-01-15T15:35:23;6.70;99.90
19206;DHT22;59358;52.134;5.596;2023-01-15T15:37:52;6.50;99.90
19206;DHT22;59358;52.134;5.596;2023-01-15T15:40:24;6.40;99.90
19206;DHT22;59358;52.134;5.596;2023-01-15T15:43:06;6.30;99.90
19206;DHT22;59358;52.134;5.596;2023-01-15T15:45:55;6.30;99.90
19206;DHT22;59358;52.134;5.596;2023-01-15T15:48:41;6.30;99.90
19206;DHT22;59358;52.134;5.596;2023-01-15T15:51:28;6.40;99.90
19206;DHT22;59358;52.134;5.596;2023-01-15T15:54:10;6.40;99.90
19206;DHT22;59358;52.134;5.596;2023-01-15T15:56:38;6.40;99.90
19206;DHT22;59358;52.134;5.596;2023-01-15T15:59:18;6.40;99.90
19206;DHT22;59358;52.134;5.596;2023-01-15T16:01:45;6.40;99.90
19206;DHT22;59358;52.134;5.596;2023-01-15T16:04:17;6.40;99.90
19206;DHT22;59358;52.134;5.596;2023-01-15T16:06:46;6.40;99.90
19206;DHT22;59358;52.134;5.596;2023-01-15T16:09:19;6.40;99.90
19206;DHT22;59358;52.134;5.596;2023-01-15T16:11:47;6.30;99.90
19206;DHT22;59358;52.134;5.596;2023-01-15T16:14:16;6.20;99.90
19206;DHT22;59358;52.134;5.596;2023-01-15T16:16:44;6.30;99.90
19206;DHT22;59358;52.134;5.596;2023-01-15T16:19:16;6.10;99.90
19206;DHT22;59358;52.134;5.596;2023-01-15T16:21:48;6.10;99.90
19206;DHT22;59358;52.134;5.596;2023-01-15T16:24:26;6.00;99.90
19206;DHT22;59358;52.134;5.596;2023-01-15T16:26:59;6.00;99.90